createdAt,value
2022-10-07T00:01:01.969Z,96676.20
2022-10-07T00:03:34.213Z,96675.43
2022-10-07T00:06:10.322Z,96673.61
2022-10-07T00:08:39.043Z,96671.82
2022-10-07T00:11:08.864Z,96671.59
2022-10-07T00:13:38.775Z,96671.98
2022-10-07T00:16:14.446Z,96669.06
2022-10-07T00:18:41.817Z,96665.85
2022-10-07T00:21:11.465Z,96664.79
2022-10-07T00:23:39.395Z,96662.61
2022-10-07T00:26:08.451Z,96663.70
2022-10-07T00:28:36.550Z,96659.89
2022-10-07T00:31:06.872Z,96660.80
2022-10-07T00:33:36.956Z,96657.40
2022-10-07T00:36:19.789Z,96662.20
2022-10-07T00:38:51.610Z,96661.34
2022-10-07T00:41:21.858Z,96661.33
2022-10-07T00:43:48.702Z,96662.35
2022-10-07T00:46:33.487Z,96656.01
2022-10-07T00:49:01.873Z,96650.44
2022-10-07T00:51:30.959Z,96650.58
2022-10-07T00:53:57.975Z,96648.95
2022-10-07T00:56:26.495Z,96642.55
2022-10-07T00:58:53.560Z,96640.05
2022-10-07T01:01:21.436Z,96638.48
2022-10-07T01:03:48.900Z,96636.21
2022-10-07T01:06:16.022Z,96633.30
2022-10-07T01:08:46.658Z,96635.84
2022-10-07T01:11:32.455Z,96633.84
2022-10-07T01:14:19.377Z,96629.89
2022-10-07T01:17:01.629Z,96629.06
2022-10-07T01:19:47.157Z,96629.32
2022-10-07T01:22:44.835Z,96629.27
2022-10-07T01:25:27.835Z,96632.85
2022-10-07T01:28:07.082Z,96627.07
2022-10-07T01:30:40.868Z,96626.19
2022-10-07T01:33:18.439Z,96625.70
2022-10-07T01:35:49.251Z,96623.02
2022-10-07T01:38:20.057Z,96620.95
2022-10-07T01:40:57.182Z,96623.56
2022-10-07T01:43:25.219Z,96620.33
2022-10-07T01:45:54.568Z,96625.08
2022-10-07T01:48:21.611Z,96624.90
2022-10-07T01:50:50.589Z,96624.47
2022-10-07T01:53:44.645Z,96624.67
2022-10-07T01:56:38.251Z,96624.17
2022-10-07T01:59:24.299Z,96622.77
2022-10-07T02:02:08.134Z,96618.61
2022-10-07T02:04:47.218Z,96613.27
2022-10-07T02:07:42.531Z,96613.59
2022-10-07T02:10:30.807Z,96618.98
2022-10-07T02:13:11.828Z,96620.49
2022-10-07T02:15:44.716Z,96621.13
2022-10-07T02:18:16.421Z,96621.82
2022-10-07T02:20:51.296Z,96620.92
2022-10-07T02:23:21.215Z,96621.13
2022-10-07T02:25:50.526Z,96619.37
2022-10-07T02:28:22.584Z,96625.86
2022-10-07T02:30:55.099Z,96622.46
2022-10-07T02:33:27.175Z,96619.84
2022-10-07T02:35:59.258Z,96616.60
2022-10-07T02:38:26.867Z,96614.86
2022-10-07T02:41:30.914Z,96612.40
2022-10-07T02:44:07.077Z,96618.23
2022-10-07T02:46:44.900Z,96618.51
2022-10-07T02:49:15.164Z,96619.13
2022-10-07T02:51:47.803Z,96616.59
2022-10-07T02:54:24.156Z,96620.02
2022-10-07T02:56:52.788Z,96622.02
2022-10-07T02:59:21.723Z,96622.19
2022-10-07T03:01:53.471Z,96627.39
2022-10-07T03:04:22.241Z,96623.48
2022-10-07T03:06:49.182Z,96626.00
2022-10-07T03:09:16.312Z,96627.06
2022-10-07T03:11:43.062Z,96631.16
2022-10-07T03:14:10.379Z,96627.46
2022-10-07T03:16:37.197Z,96623.77
2022-10-07T03:19:04.067Z,96625.59
2022-10-07T03:21:34.327Z,96627.05
2022-10-07T03:24:04.170Z,96627.33
2022-10-07T03:26:34.936Z,96627.79
2022-10-07T03:29:02.202Z,96624.18
2022-10-07T03:31:29.510Z,96623.70
2022-10-07T03:33:57.879Z,96616.42
2022-10-07T03:36:24.758Z,96613.73
2022-10-07T03:38:51.681Z,96611.60
2022-10-07T03:41:20.226Z,96609.05
2022-10-07T03:43:48.845Z,96608.39
2022-10-07T03:46:19.104Z,96607.69
2022-10-07T03:48:46.246Z,96606.92
2022-10-07T03:51:13.769Z,96608.26
2022-10-07T03:53:40.823Z,96608.21
2022-10-07T03:56:08.279Z,96606.66
2022-10-07T03:58:35.793Z,96604.75
2022-10-07T04:01:09.247Z,96603.48
2022-10-07T04:03:37.072Z,96604.34
2022-10-07T04:06:04.269Z,96604.63
2022-10-07T04:08:33.683Z,96602.39
2022-10-07T04:11:03.251Z,96597.75
2022-10-07T04:13:31.125Z,96597.02
2022-10-07T04:15:58.125Z,96599.64
2022-10-07T04:18:25.831Z,96599.69
2022-10-07T04:20:53.162Z,96596.27
2022-10-07T04:23:21.287Z,96594.71
2022-10-07T04:25:47.998Z,96593.50
2022-10-07T04:28:25.710Z,96597.33
2022-10-07T04:30:57.963Z,96597.15
2022-10-07T04:33:31.046Z,96592.67
2022-10-07T04:36:04.881Z,96594.81
2022-10-07T04:38:34.801Z,96590.38
2022-10-07T04:41:06.252Z,96592.59
2022-10-07T04:43:34.413Z,96590.70
2022-10-07T04:46:10.921Z,96589.08
2022-10-07T04:48:45.219Z,96586.73
2022-10-07T04:51:15.379Z,96578.48
2022-10-07T04:53:44.371Z,96576.89
2022-10-07T04:56:11.260Z,96577.57
2022-10-07T04:58:38.264Z,96573.22
2022-10-07T05:01:09.278Z,96573.96
2022-10-07T05:03:39.529Z,96574.30
2022-10-07T05:06:08.396Z,96576.45
2022-10-07T05:08:35.874Z,96580.34
2022-10-07T05:11:05.370Z,96581.74
2022-10-07T05:13:39.846Z,96586.18
2022-10-07T05:16:13.800Z,96586.20
2022-10-07T05:18:41.489Z,96589.98
2022-10-07T05:21:11.443Z,96594.83
2022-10-07T05:23:41.514Z,96598.23
2022-10-07T05:26:13.898Z,96599.39
2022-10-07T05:28:46.027Z,96599.33
2022-10-07T05:31:18.827Z,96604.64
2022-10-07T05:33:52.780Z,96603.60
2022-10-07T05:36:23.496Z,96606.25
2022-10-07T05:39:00.615Z,96604.16
2022-10-07T06:58:25.008Z,96614.85
2022-10-07T07:01:05.421Z,96615.02
2022-10-07T07:18:32.077Z,96594.73
2022-10-07T10:22:37.157Z,96445.55
2022-10-07T10:26:24.221Z,96445.45
2022-10-07T10:29:11.662Z,96441.39
2022-10-07T10:32:21.043Z,96435.30
2022-10-07T10:35:19.531Z,96435.08
2022-10-07T10:38:03.288Z,96424.23
2022-10-07T10:40:41.861Z,96424.46
2022-10-07T10:44:10.080Z,96422.63
2022-10-07T10:47:03.706Z,96419.89
2022-10-07T10:49:55.119Z,96420.43
2022-10-07T10:52:50.024Z,96412.95
2022-10-07T10:56:08.471Z,96416.06
2022-10-07T10:58:36.159Z,96410.77
2022-10-07T11:01:09.549Z,96406.75
2022-10-07T11:03:46.814Z,96404.91
2022-10-07T11:06:17.696Z,96403.88
2022-10-07T11:08:47.122Z,96404.34
2022-10-07T11:11:22.873Z,96402.85
2022-10-07T11:14:05.419Z,96395.66
2022-10-07T11:16:52.501Z,96395.04
2022-10-07T11:19:37.532Z,96397.51
2022-10-07T11:22:14.384Z,96391.30
2022-10-07T11:24:56.379Z,96391.86
2022-10-07T11:27:29.832Z,96392.64
2022-10-07T11:30:16.574Z,96391.70
2022-10-07T11:32:58.946Z,96394.08
2022-10-07T11:35:31.607Z,96387.77
2022-10-07T11:38:16.823Z,96381.39
2022-10-07T11:41:03.004Z,96385.00
2022-10-07T11:43:40.096Z,96380.21
2022-10-07T11:46:36.368Z,96378.34
2022-10-07T11:49:12.283Z,96376.64
2022-10-07T11:51:45.341Z,96375.47
2022-10-07T11:54:19.953Z,96372.88
2022-10-07T11:56:48.940Z,96371.92
2022-10-07T11:59:49.602Z,96374.48
2022-10-07T12:02:28.807Z,96374.92
2022-10-07T12:04:59.235Z,96373.26
2022-10-07T12:07:42.584Z,96365.27
2022-10-07T12:10:37.801Z,96373.15
2022-10-07T12:13:08.944Z,96368.45
2022-10-07T12:15:42.059Z,96365.88
2022-10-07T12:18:11.776Z,96369.84
2022-10-07T12:20:46.049Z,96365.80
2022-10-07T12:23:23.030Z,96363.38
2022-10-07T12:26:22.246Z,96370.44
2022-10-07T12:28:49.396Z,96365.29
2022-10-07T12:31:21.416Z,96363.92
2022-10-07T12:34:09.808Z,96365.33
2022-10-07T12:36:40.888Z,96365.23
2022-10-07T12:39:11.223Z,96361.84
2022-10-07T12:41:43.438Z,96361.05
2022-10-07T12:44:48.563Z,96357.38
2022-10-07T12:47:29.405Z,96359.64
2022-10-07T12:50:04.306Z,96354.04
2022-10-07T12:52:55.037Z,96355.17
2022-10-07T12:55:47.928Z,96353.39
2022-10-07T12:58:39.661Z,96348.83
2022-10-07T13:01:22.920Z,96348.08
2022-10-07T13:04:10.040Z,96347.66
2022-10-07T13:06:39.020Z,96345.06
2022-10-07T13:09:23.392Z,96342.69
2022-10-07T13:12:15.256Z,96340.04
2022-10-07T13:15:08.630Z,96337.08
2022-10-07T13:17:46.502Z,96335.61
2022-10-07T13:20:37.435Z,96341.20
2022-10-07T13:23:11.624Z,96335.02
2022-10-07T13:25:54.107Z,96328.52
2022-10-07T13:28:25.316Z,96331.27
2022-10-07T13:30:54.154Z,96325.97
2022-10-07T13:33:26.437Z,96325.90
2022-10-07T13:36:06.163Z,96323.42
2022-10-07T13:38:34.594Z,96320.55
2022-10-07T13:41:07.562Z,96321.23
2022-10-07T13:43:36.786Z,96323.42
2022-10-07T13:46:12.736Z,96320.87
2022-10-07T13:48:45.570Z,96316.49
2022-10-07T13:51:29.072Z,96315.05
2022-10-07T13:53:59.179Z,96314.41
2022-10-07T13:56:49.575Z,96311.62
2022-10-07T13:59:18.491Z,96308.37
2022-10-07T14:01:49.134Z,96307.91
2022-10-07T14:04:28.028Z,96310.06
2022-10-07T14:07:16.780Z,96313.73
2022-10-07T14:10:09.839Z,96308.41
2022-10-07T14:12:43.498Z,96306.98
2022-10-07T14:15:14.519Z,96305.56
2022-10-07T14:17:51.160Z,96305.44
2022-10-07T14:20:33.419Z,96305.39
2022-10-07T14:23:05.734Z,96306.73
2022-10-07T14:25:56.832Z,96301.05
2022-10-07T14:28:23.686Z,96303.45
2022-10-07T14:31:24.456Z,96300.10
2022-10-07T14:34:33.385Z,96300.70
2022-10-07T14:37:02.967Z,96301.00
2022-10-07T14:39:42.924Z,96297.88
2022-10-07T14:42:21.347Z,96294.21
2022-10-07T14:44:48.745Z,96295.54
2022-10-07T14:47:20.789Z,96295.30
2022-10-07T14:49:52.164Z,96295.99
2022-10-07T14:52:23.828Z,96295.86
2022-10-07T14:54:52.207Z,96290.92
2022-10-07T14:57:19.025Z,96289.12
2022-10-07T14:59:47.229Z,96293.33
2022-10-07T15:02:14.314Z,96292.05
2022-10-07T15:04:44.707Z,96290.47
2022-10-07T15:07:13.227Z,96286.70
2022-10-07T15:09:42.745Z,96291.30
2022-10-07T15:12:11.234Z,96290.54
2022-10-07T15:14:38.132Z,96293.38
2022-10-07T15:17:05.664Z,96292.42
2022-10-07T15:19:34.142Z,96290.95
2022-10-07T15:22:00.933Z,96287.81
2022-10-07T15:24:29.642Z,96289.16
2022-10-07T15:26:56.378Z,96286.78
2022-10-07T15:29:23.431Z,96291.86
2022-10-07T15:31:51.760Z,96288.79
2022-10-07T15:34:18.637Z,96289.48
2022-10-07T15:36:46.230Z,96284.47
2022-10-07T15:39:13.358Z,96287.91
2022-10-07T15:41:42.938Z,96284.15
2022-10-07T15:44:15.482Z,96286.06
2022-10-07T15:46:46.877Z,96288.40
2022-10-07T15:49:24.033Z,96284.30
2022-10-07T15:51:50.755Z,96281.59
2022-10-07T15:54:17.699Z,96281.42
2022-10-07T15:56:44.720Z,96280.35
2022-10-07T15:59:13.194Z,96278.83
2022-10-07T16:01:40.347Z,96278.96
2022-10-07T16:04:11.085Z,96278.86
2022-10-07T16:06:38.246Z,96277.54
2022-10-07T16:09:05.758Z,96274.35
2022-10-07T16:11:33.793Z,96274.52
2022-10-07T16:14:01.483Z,96276.52
2022-10-07T16:16:32.803Z,96280.56
2022-10-07T16:19:00.583Z,96285.10
2022-10-07T16:21:33.154Z,96284.96
2022-10-07T16:24:09.921Z,96286.02
2022-10-07T16:26:36.996Z,96290.92
2022-10-07T16:29:25.256Z,96292.51
2022-10-07T16:31:58.270Z,96286.19
2022-10-07T16:34:27.770Z,96289.08
2022-10-07T16:36:56.586Z,96285.84
2022-10-07T16:39:24.016Z,96284.52
2022-10-07T16:41:52.051Z,96289.21
2022-10-07T16:44:20.552Z,96288.73
2022-10-07T16:46:49.132Z,96286.16
2022-10-07T16:49:17.661Z,96283.39
2022-10-07T16:51:45.509Z,96279.55
2022-10-07T16:54:15.430Z,96281.45
2022-10-07T16:56:49.378Z,96284.77
2022-10-07T16:59:23.500Z,96287.09
2022-10-07T17:01:54.893Z,96291.73
2022-10-07T17:04:23.858Z,96295.70
2022-10-07T17:06:50.853Z,96295.27
2022-10-07T17:09:17.935Z,96291.85
2022-10-07T17:11:45.379Z,96291.42
2022-10-07T17:14:18.643Z,96291.04
2022-10-07T17:16:56.031Z,96291.36
2022-10-07T17:19:28.329Z,96295.91
2022-10-07T17:21:58.028Z,96296.56
2022-10-07T17:24:25.418Z,96301.98
2022-10-07T17:26:52.803Z,96301.36
2022-10-07T17:29:22.305Z,96301.92
2022-10-07T17:31:50.232Z,96301.33
2022-10-07T17:34:20.177Z,96303.85
2022-10-07T17:36:48.168Z,96304.48
2022-10-07T17:39:16.689Z,96303.21
2022-10-07T17:41:43.715Z,96302.88
2022-10-07T17:44:12.326Z,96299.06
2022-10-07T17:46:40.399Z,96293.89
2022-10-07T17:49:09.449Z,96292.41
2022-10-07T17:51:36.837Z,96291.03
2022-10-07T17:54:05.654Z,96289.05
2022-10-07T17:56:33.987Z,96287.85
2022-10-07T17:59:01.800Z,96285.66
2022-10-07T18:01:33.414Z,96284.17
2022-10-07T18:04:09.833Z,96285.20
2022-10-07T18:06:39.022Z,96279.49
2022-10-07T18:09:07.590Z,96279.66
2022-10-07T18:11:53.408Z,96281.01
2022-10-07T18:14:38.798Z,96279.52
2022-10-07T18:17:07.228Z,96281.08
2022-10-07T18:19:34.279Z,96283.41
2022-10-07T18:22:02.503Z,96282.11
2022-10-07T18:24:29.370Z,96281.98
2022-10-07T18:27:00.521Z,96286.45
2022-10-07T18:29:29.526Z,96282.77
2022-10-07T18:31:56.813Z,96284.27
2022-10-07T18:34:24.407Z,96281.04
2022-10-07T18:36:55.905Z,96284.58
2022-10-07T18:39:26.730Z,96280.33
2022-10-07T18:41:54.049Z,96277.54
2022-10-07T18:44:21.538Z,96279.25
2022-10-07T18:46:48.363Z,96276.59
2022-10-07T18:49:15.759Z,96279.05
2022-10-07T18:51:43.095Z,96275.09
2022-10-07T18:54:10.231Z,96274.10
2022-10-07T18:56:40.753Z,96278.81
2022-10-07T18:59:09.416Z,96280.11
2022-10-07T19:01:36.911Z,96281.52
2022-10-07T19:04:05.052Z,96279.34
2022-10-07T19:06:35.243Z,96277.65
2022-10-07T19:09:05.973Z,96279.73
2022-10-07T19:11:33.344Z,96280.77
2022-10-07T19:14:00.662Z,96277.45
2022-10-07T19:16:34.023Z,96277.38
2022-10-07T19:19:04.743Z,96279.03
2022-10-07T19:21:32.844Z,96277.23
2022-10-07T19:24:02.840Z,96276.66
2022-10-07T19:26:38.672Z,96282.95
2022-10-07T19:29:08.694Z,96288.02
2022-10-07T19:31:39.778Z,96282.96
2022-10-07T19:34:09.432Z,96285.88
2022-10-07T19:36:39.599Z,96286.73
2022-10-07T19:39:06.981Z,96284.45
2022-10-07T19:41:35.095Z,96288.27
2022-10-07T19:44:03.244Z,96288.21
2022-10-07T19:46:32.854Z,96287.69
2022-10-07T19:49:01.650Z,96285.27
2022-10-07T19:51:30.632Z,96285.91
2022-10-07T19:53:59.644Z,96287.19
2022-10-07T19:56:31.089Z,96289.83
2022-10-07T19:59:01.033Z,96287.12
2022-10-07T20:01:31.612Z,96286.64
2022-10-07T20:04:02.207Z,96286.36
2022-10-07T20:06:29.116Z,96286.80
2022-10-07T20:08:57.710Z,96286.64
2022-10-07T20:11:27.187Z,96286.39
2022-10-07T20:13:54.623Z,96281.93
2022-10-07T20:16:24.029Z,96283.08
2022-10-07T20:19:05.045Z,96284.95
2022-10-07T20:21:35.183Z,96281.61
2022-10-07T20:24:03.532Z,96281.70
2022-10-07T20:26:33.501Z,96282.54
2022-10-07T20:29:02.398Z,96279.02
2022-10-07T20:31:32.583Z,96277.57
2022-10-07T20:34:00.972Z,96279.44
2022-10-07T20:36:30.033Z,96276.92
2022-10-07T20:39:17.591Z,96277.34
2022-10-07T20:42:10.299Z,96281.81
2022-10-07T20:44:37.520Z,96281.58
2022-10-07T20:47:09.212Z,96276.75
2022-10-07T20:49:40.818Z,96275.34
2022-10-07T20:52:13.661Z,96274.29
2022-10-07T20:54:40.559Z,96269.45
2022-10-07T20:57:07.468Z,96267.50
2022-10-07T20:59:34.282Z,96266.79
2022-10-07T21:02:03.007Z,96264.13
2022-10-07T21:04:33.368Z,96265.98
2022-10-07T21:07:01.176Z,96264.52
2022-10-07T21:09:28.382Z,96260.66
2022-10-07T21:11:57.795Z,96259.31
2022-10-07T21:14:24.781Z,96259.30
2022-10-07T21:16:52.711Z,96259.44
2022-10-07T21:19:19.433Z,96264.55
2022-10-07T21:21:46.742Z,96261.61
2022-10-07T21:24:14.013Z,96264.90
2022-10-07T21:26:40.952Z,96261.19
2022-10-07T21:29:10.357Z,96263.36
2022-10-07T21:31:37.167Z,96265.95
2022-10-07T21:34:07.275Z,96265.24
2022-10-07T21:36:37.370Z,96266.31
2022-10-07T21:39:05.029Z,96263.83
2022-10-07T21:41:34.389Z,96257.79
2022-10-07T21:44:06.629Z,96251.03
2022-10-07T21:46:36.019Z,96252.86
2022-10-07T21:49:03.635Z,96249.59
2022-10-07T21:51:31.684Z,96245.35
2022-10-07T21:53:58.555Z,96242.39
2022-10-07T21:56:27.781Z,96241.63
2022-10-07T21:58:56.669Z,96243.51
2022-10-07T22:01:24.892Z,96239.95
2022-10-07T22:03:56.893Z,96240.43
2022-10-07T22:06:43.945Z,96237.66
2022-10-07T22:09:12.719Z,96237.26
2022-10-07T22:11:40.175Z,96232.06
2022-10-07T22:14:12.117Z,96229.32
2022-10-07T22:16:40.297Z,96230.87
2022-10-07T22:19:07.537Z,96227.79
2022-10-07T22:21:39.259Z,96226.94
2022-10-07T22:24:08.101Z,96222.48
2022-10-07T22:26:41.517Z,96222.58
2022-10-07T22:29:09.850Z,96220.00
2022-10-07T22:31:37.501Z,96220.15
2022-10-07T22:34:04.852Z,96219.28
2022-10-07T22:36:32.077Z,96215.07
2022-10-07T22:38:59.718Z,96219.48
2022-10-07T22:41:27.081Z,96216.64
2022-10-07T22:43:54.565Z,96217.31
2022-10-07T22:46:25.745Z,96213.23
2022-10-07T22:48:55.760Z,96207.94
2022-10-07T22:51:26.391Z,96207.25
2022-10-07T22:53:54.793Z,96202.13
2022-10-07T22:56:23.625Z,96201.27
2022-10-07T22:58:53.832Z,96200.77
2022-10-07T23:01:21.605Z,96197.52
2022-10-07T23:03:48.882Z,96200.50
2022-10-07T23:06:18.718Z,96200.84
2022-10-07T23:08:47.354Z,96194.51
2022-10-07T23:11:17.665Z,96191.71
2022-10-07T23:13:45.586Z,96192.05
2022-10-07T23:16:15.351Z,96189.75
2022-10-07T23:18:44.689Z,96185.09
2022-10-07T23:21:13.408Z,96184.73
2022-10-07T23:23:42.484Z,96182.85
2022-10-07T23:26:11.894Z,96185.08
2022-10-07T23:28:39.413Z,96184.25
2022-10-07T23:31:08.278Z,96184.38
2022-10-07T23:33:37.597Z,96185.45
2022-10-07T23:36:08.405Z,96183.82
2022-10-07T23:38:44.219Z,96182.13
2022-10-07T23:41:13.379Z,96182.52
2022-10-07T23:43:40.300Z,96185.02
2022-10-07T23:46:12.701Z,96185.23
2022-10-07T23:48:40.667Z,96183.23
2022-10-07T23:51:09.903Z,96177.61
2022-10-07T23:53:36.838Z,96179.47
2022-10-07T23:56:03.678Z,96177.22
2022-10-07T23:58:31.487Z,96174.77
